Time;durP1;ratioP1;P1;durP2;ratioP2;P2;SDS_P1;SDS_P2;PMS_P1;PMS_P2;Temp;Humidity;BMP_temperature;BMP_pressure;BME280_temperature;BME280_humidity;BME280_pressure;Samples;Min_cycle;Max_cycle;Signal;HPM_P1;HPM_P2
2022/03/28 00:00:52;;;;;;;;;51.00;39.67;;;;;14.05;81.46;102146.22;4979551;28;45979;-79
2022/03/28 00:03:17;;;;;;;;;35.67;31.67;;;;;14.02;82.84;102138.41;4996584;28;44700;-80
2022/03/28 00:05:43;;;;;;;;;44.00;36.33;;;;;13.99;83.85;102135.91;4998173;28;45718;-80
2022/03/28 00:08:08;;;;;;;;;42.33;35.00;;;;;13.94;82.49;102129.97;4999040;28;44895;-79
2022/03/28 00:10:34;;;;;;;;;47.00;36.67;;;;;13.93;82.73;102130.06;4982961;28;47274;-79
2022/03/28 00:13:00;;;;;;;;;50.00;37.00;;;;;13.92;83.26;102123.84;5004731;28;45253;-79
2022/03/28 00:15:25;;;;;;;;;48.67;39.00;;;;;13.92;84.52;102128.31;5003383;28;45449;-80
2022/03/28 00:17:51;;;;;;;;;47.67;38.67;;;;;13.90;83.72;102128.44;4999566;28;44783;-80
2022/03/28 00:20:17;;;;;;;;;38.00;31.00;;;;;13.86;82.68;102126.88;4981902;28;46559;-79
2022/03/28 00:22:42;;;;;;;;;46.00;38.67;;;;;13.81;86.09;102120.94;4998845;28;45569;-79
2022/03/28 00:25:09;;;;;;;;;45.33;40.00;;;;;13.76;85.25;102118.53;4998479;28;45403;-79
2022/03/28 00:27:35;;;;;;;;;51.67;39.00;;;;;13.71;86.96;102117.94;4997404;28;45236;-79
2022/03/28 00:30:00;;;;;;;;;59.67;46.33;;;;;13.68;88.05;102123.47;4997567;28;45434;-80
2022/03/28 00:32:26;;;;;;;;;47.67;39.33;;;;;13.65;87.88;102109.44;4997196;28;45335;-80
2022/03/28 00:34:53;;;;;;;;;50.00;38.33;;;;;13.62;86.31;102110.47;4997873;28;45318;-79
2022/03/28 00:37:18;;;;;;;;;51.33;40.33;;;;;13.57;87.78;102112.53;5000586;28;45518;-80
2022/03/28 00:39:44;;;;;;;;;44.33;34.00;;;;;13.54;86.50;102105.59;5000847;28;45234;-80
2022/03/28 00:42:09;;;;;;;;;53.33;42.67;;;;;13.51;88.54;102110.22;4998558;28;45290;-80
2022/03/28 00:44:36;;;;;;;;;49.00;40.50;;;;;13.48;91.49;102097.03;4997248;28;45352;-80
2022/03/28 00:47:02;;;;;;;;;56.67;42.67;;;;;13.46;91.03;102098.97;4997154;28;44808;-80
2022/03/28 00:49:28;;;;;;;;;56.00;43.33;;;;;13.44;88.94;102098.16;4996824;28;45298;-81
2022/03/28 00:51:54;;;;;;;;;49.33;42.00;;;;;13.40;89.80;102100.19;4995890;28;45369;-79
2022/03/28 00:54:20;;;;;;;;;51.67;41.67;;;;;13.34;90.29;102092.50;4995416;28;45377;-80
2022/03/28 00:56:47;;;;;;;;;52.00;38.33;;;;;13.30;90.30;102097.16;4996642;28;45643;-80
2022/03/28 00:59:13;;;;;;;;;41.67;35.00;;;;;13.26;90.01;102098.28;4996550;28;45290;-80
2022/03/28 01:01:38;;;;;;;;;50.67;40.00;;;;;13.21;92.13;102089.66;4995506;28;45511;-80
2022/03/28 01:04:08;;;;;;;;;52.67;39.33;;;;;13.18;93.15;102100.47;4996444;28;45388;-81
2022/03/28 01:06:37;;;;;;;;;58.33;40.67;;;;;13.16;94.19;102094.38;5001762;28;45508;-80
2022/03/28 01:09:04;;;;;;;;;49.67;35.67;;;;;13.11;97.10;102091.97;5021718;28;45368;-80
2022/03/28 01:11:33;;;;;;;;;42.33;35.33;;;;;13.08;95.28;102091.28;5016737;28;45568;-79
2022/03/28 01:13:59;;;;;;;;;44.33;37.00;;;;;13.04;95.70;102085.22;5020722;28;45405;-78
2022/03/28 01:16:28;;;;;;;;;51.67;39.00;;;;;13.00;94.99;102086.34;5023509;28;45386;-80
2022/03/28 01:18:53;;;;;;;;;46.00;37.00;;;;;12.97;94.62;102073.19;5005235;28;46315;-80
2022/03/28 01:21:18;;;;;;;;;48.33;37.67;;;;;12.92;96.54;102072.59;5018729;28;44626;-80
2022/03/28 01:23:44;;;;;;;;;46.33;37.67;;;;;12.89;97.15;102077.22;5019116;28;45231;-79
2022/03/28 01:26:12;;;;;;;;;46.00;37.67;;;;;12.83;98.97;102067.75;5016191;28;45425;-80
2022/03/28 01:28:38;;;;;;;;;49.67;37.00;;;;;12.80;100.00;102073.25;5017911;28;45382;-80
2022/03/28 01:31:03;;;;;;;;;44.00;36.00;;;;;12.77;100.00;102066.31;5020036;28;45348;-80
2022/03/28 01:33:29;;;;;;;;;44.00;35.00;;;;;12.76;100.00;102053.88;5020334;28;45441;-81
2022/03/28 01:35:55;;;;;;;;;44.00;32.33;;;;;12.76;100.00;102058.38;5008079;28;45545;-80
2022/03/28 01:38:21;;;;;;;;;48.67;39.33;;;;;12.75;100.00;102053.97;5006068;28;46668;-80
2022/03/28 01:40:49;;;;;;;;;46.33;39.00;;;;;12.73;100.00;102059.41;5019041;28;45211;-79
2022/03/28 01:43:15;;;;;;;;;49.67;37.00;;;;;12.72;100.00;102054.16;5019125;28;45394;-80
2022/03/28 01:45:42;;;;;;;;;48.00;38.33;;;;;12.70;100.00;102051.56;5018925;28;44883;-80
2022/03/28 01:48:08;;;;;;;;;43.67;38.00;;;;;12.72;100.00;102055.03;5018478;28;45105;-80
2022/03/28 01:50:34;;;;;;;;;48.67;37.67;;;;;12.71;100.00;102047.94;5000853;28;45327;-79
2022/03/28 01:52:59;;;;;;;;;44.00;35.67;;;;;12.72;100.00;102048.84;5000878;28;45411;-80
2022/03/28 01:55:25;;;;;;;;;41.67;36.00;;;;;12.73;100.00;102045.22;5000964;28;45327;-79
2022/03/28 01:57:52;;;;;;;;;48.67;39.33;;;;;12.72;100.00;102044.38;5018750;28;45027;-79
2022/03/28 02:00:19;;;;;;;;;45.00;35.67;;;;;12.72;100.00;102051.50;5019168;28;45369;-80
2022/03/28 02:02:48;;;;;;;;;47.67;38.33;;;;;12.70;100.00;102050.72;5021735;28;44677;-79
2022/03/28 02:05:15;;;;;;;;;46.00;38.33;;;;;12.68;100.00;102047.28;5024618;28;44725;-80
2022/03/28 02:07:43;;;;;;;;;45.67;33.33;;;;;12.65;100.00;102042.09;5022494;28;45090;-80
2022/03/28 02:10:10;;;;;;;;;51.00;41.33;;;;;12.62;100.00;102045.81;5023108;28;44750;-80
2022/03/28 02:12:35;;;;;;;;;49.00;40.00;;;;;12.60;100.00;102045.88;5019550;28;45366;-80
2022/03/28 02:15:04;;;;;;;;;52.00;40.00;;;;;12.58;100.00;102042.44;5023124;28;45484;-79
2022/03/28 02:17:31;;;;;;;;;51.33;41.33;;;;;12.55;100.00;102045.25;5024275;28;45270;-80
2022/03/28 02:19:57;;;;;;;;;52.67;41.00;;;;;12.53;100.00;102041.84;5023564;28;45412;-80
2022/03/28 02:22:22;;;;;;;;;54.67;42.33;;;;;12.50;100.00;102033.13;5019873;28;45346;-80
2022/03/28 02:24:48;;;;;;;;;54.67;44.00;;;;;12.47;100.00;102038.63;5000843;28;45584;-80
2022/03/28 02:27:15;;;;;;;;;48.00;39.67;;;;;12.42;100.00;102044.19;5018536;28;45398;-78
2022/03/28 02:29:40;;;;;;;;;50.00;40.67;;;;;12.38;100.00;102041.78;5000637;28;44864;-80
2022/03/28 02:32:06;;;;;;;;;49.67;40.00;;;;;12.35;100.00;102041.00;5022807;28;45415;-80
2022/03/28 02:34:32;;;;;;;;;57.33;43.00;;;;;12.32;100.00;102043.84;5022630;28;45243;-79
2022/03/28 02:36:57;;;;;;;;;55.00;43.33;;;;;12.28;100.00;102036.06;5018277;28;45396;-80
2022/03/28 02:39:23;;;;;;;;;47.00;37.33;;;;;12.25;100.00;102033.59;5017887;28;44806;-80
2022/03/28 02:41:48;;;;;;;;;47.00;39.33;;;;;12.24;100.00;102034.53;5018378;28;45271;-80
2022/03/28 02:44:14;;;;;;;;;49.67;40.33;;;;;12.20;100.00;102033.84;5018262;28;44953;-80
2022/03/28 02:46:40;;;;;;;;;47.67;40.00;;;;;12.18;100.00;102030.38;5017818;28;45436;-79
2022/03/28 02:49:06;;;;;;;;;50.33;39.33;;;;;12.12;100.00;102020.06;5018050;28;45339;-80
2022/03/28 02:51:31;;;;;;;;;46.00;38.67;;;;;12.12;100.00;102019.19;4999986;28;45365;-79
2022/03/28 02:53:56;;;;;;;;;49.33;39.67;;;;;12.09;100.00;102022.91;5022234;28;44934;-79
2022/03/28 02:56:22;;;;;;;;;54.67;41.00;;;;;12.07;100.00;102014.97;5023084;28;45400;-79
2022/03/28 02:58:48;;;;;;;;;44.00;36.33;;;;;12.06;100.00;102010.59;5000311;28;45433;-80
2022/03/28 03:01:14;;;;;;;;;48.67;39.00;;;;;12.04;100.00;102009.81;5021856;28;45278;-80
2022/03/28 03:03:39;;;;;;;;;48.67;40.67;;;;;12.02;100.00;102002.84;5021555;28;44774;-79
2022/03/28 03:06:05;;;;;;;;;49.00;38.00;;;;;12.01;100.00;102003.78;5000087;28;45341;-80
2022/03/28 03:08:30;;;;;;;;;44.33;36.67;;;;;11.97;100.00;101997.75;5017447;28;45489;-79
2022/03/28 03:10:56;;;;;;;;;50.33;40.33;;;;;11.94;100.00;102003.25;5017983;28;45353;-79
2022/03/28 03:13:21;;;;;;;;;53.33;41.33;;;;;11.91;100.00;101997.22;5021426;28;44847;-80
2022/03/28 03:15:46;;;;;;;;;53.00;43.00;;;;;11.89;100.00;101994.63;5023771;28;45444;-80
2022/03/28 03:18:12;;;;;;;;;49.00;38.33;;;;;11.88;100.00;101992.91;5024962;28;45263;-78
2022/03/28 03:20:37;;;;;;;;;47.33;39.33;;;;;11.85;100.00;101995.75;5025426;28;45432;-78
2022/03/28 03:23:03;;;;;;;;;49.33;42.00;;;;;11.82;100.00;101995.91;5023432;28;44875;-80
2022/03/28 03:25:28;;;;;;;;;58.67;44.00;;;;;11.79;100.00;101990.69;5021327;28;45014;-80
2022/03/28 03:27:54;;;;;;;;;48.33;39.67;;;;;11.76;100.00;101990.88;5024429;28;44719;-81
2022/03/28 03:30:20;;;;;;;;;51.33;41.67;;;;;11.72;100.00;101983.97;5023714;28;45459;-80
2022/03/28 03:32:46;;;;;;;;;56.67;44.00;;;;;11.70;100.00;101985.84;5024660;28;45350;-80
2022/03/28 03:35:11;;;;;;;;;53.00;41.67;;;;;11.68;100.00;101988.59;5018437;28;45166;-80
2022/03/28 03:37:38;;;;;;;;;52.33;43.00;;;;;11.67;100.00;101978.03;5017801;28;45468;-81
2022/03/28 03:40:06;;;;;;;;;54.67;44.33;;;;;11.67;100.00;101991.34;5019824;28;45158;-78
2022/03/28 03:42:31;;;;;;;;;58.00;43.33;;;;;11.66;100.00;101993.16;5018080;28;45306;-80
2022/03/28 03:44:59;;;;;;;;;53.33;43.00;;;;;11.66;100.00;101994.94;5016751;28;45350;-80
2022/03/28 03:47:25;;;;;;;;;57.00;42.67;;;;;11.65;100.00;101985.22;5017318;28;44865;-81
2022/03/28 03:49:50;;;;;;;;;59.67;46.33;;;;;11.65;100.00;101987.88;5017112;28;45523;-80
2022/03/28 03:52:16;;;;;;;;;56.00;43.33;;;;;11.63;100.00;101989.78;5016978;28;45286;-78
2022/03/28 03:54:42;;;;;;;;;57.67;44.00;;;;;11.62;100.00;101988.06;5017183;28;45432;-79
2022/03/28 03:57:08;;;;;;;;;58.33;46.00;;;;;11.62;100.00;101988.06;5017425;28;45464;-81
2022/03/28 03:59:33;;;;;;;;;53.00;41.33;;;;;11.61;100.00;101989.00;5019810;28;45456;-80
2022/03/28 04:01:59;;;;;;;;;60.00;46.33;;;;;11.61;100.00;101989.00;5023440;28;45470;-80
2022/03/28 04:04:24;;;;;;;;;53.67;44.33;;;;;11.60;100.00;101988.09;4999586;28;45470;-81
2022/03/28 04:06:50;;;;;;;;;49.00;40.33;;;;;11.57;100.00;101990.94;5017295;28;45322;-81
2022/03/28 04:09:17;;;;;;;;;56.00;45.00;;;;;11.55;100.00;101987.47;5017161;28;45306;-80
2022/03/28 04:11:42;;;;;;;;;60.67;45.33;;;;;11.53;100.00;101990.22;5017229;28;44750;-80
2022/03/28 04:14:07;;;;;;;;;61.00;45.33;;;;;11.49;100.00;101983.34;4999007;28;45413;-80
2022/03/28 04:16:33;;;;;;;;;59.33;47.00;;;;;11.48;100.00;101983.44;5017245;28;45483;-80
2022/03/28 04:18:59;;;;;;;;;58.33;45.67;;;;;11.44;100.00;101990.69;5018044;28;45471;-81
2022/03/28 04:21:26;;;;;;;;;56.00;44.33;;;;;11.41;100.00;101988.22;5020985;28;45404;-80
2022/03/28 04:23:51;;;;;;;;;60.33;44.00;;;;;11.38;100.00;101987.50;5023779;28;45366;-80
2022/03/28 04:26:16;;;;;;;;;55.67;44.33;;;;;11.37;100.00;101989.28;5006972;28;45254;-79
2022/03/28 04:28:42;;;;;;;;;57.67;46.67;;;;;11.34;100.00;101992.09;5022071;28;45229;-81
2022/03/28 04:31:08;;;;;;;;;56.33;43.67;;;;;11.31;100.00;101994.91;5022499;28;45488;-80
2022/03/28 04:33:34;;;;;;;;;60.33;47.00;;;;;11.28;100.00;102001.25;5019768;28;45266;-80
2022/03/28 04:35:59;;;;;;;;;59.00;47.00;;;;;11.27;100.00;102002.19;5019547;28;44712;-82
2022/03/28 04:38:25;;;;;;;;;59.67;48.00;;;;;11.25;100.00;101995.22;5018928;28;45295;-81
2022/03/28 04:40:52;;;;;;;;;60.67;46.33;;;;;11.21;100.00;101993.63;4999536;28;45419;-81
2022/03/28 04:43:17;;;;;;;;;61.33;46.00;;;;;11.19;100.00;101992.88;5017762;28;45417;-80
2022/03/28 04:45:42;;;;;;;;;66.00;50.33;;;;;11.17;100.00;101998.28;5017742;28;45642;-81
2022/03/28 04:48:08;;;;;;;;;61.67;45.00;;;;;11.17;100.00;101984.09;5016919;28;45376;-81
2022/03/28 04:50:34;;;;;;;;;56.67;44.33;;;;;11.15;100.00;101991.28;4999180;28;45546;-80
2022/03/28 04:52:59;;;;;;;;;57.00;43.33;;;;;11.10;100.00;101980.00;4998269;28;46754;-80
2022/03/28 04:55:25;;;;;;;;;56.67;44.33;;;;;11.04;100.00;101981.19;5016293;28;45551;-80
2022/03/28 04:57:50;;;;;;;;;58.00;44.67;;;;;10.98;100.00;101979.69;5016297;28;45180;-81
2022/03/28 05:00:16;;;;;;;;;59.00;47.33;;;;;10.93;100.00;101983.50;5016829;28;44898;-81
2022/03/28 05:02:41;;;;;;;;;58.00;44.33;;;;;10.86;100.00;101985.59;5018219;28;45492;-80
2022/03/28 05:05:07;;;;;;;;;60.67;45.33;;;;;10.82;100.00;101987.53;5016599;28;44829;-81
2022/03/28 05:07:34;;;;;;;;;51.67;42.00;;;;;10.79;100.00;101979.72;5016683;28;45373;-82
2022/03/28 05:10:01;;;;;;;;;58.67;44.00;;;;;10.74;100.00;101984.38;5016629;28;45536;-81
2022/03/28 05:12:26;;;;;;;;;56.00;43.67;;;;;10.72;100.00;101977.41;5019249;28;45377;-81
2022/03/28 05:14:53;;;;;;;;;57.33;45.67;;;;;10.65;100.00;101979.50;5021475;28;45317;-82
2022/03/28 05:17:22;;;;;;;;;64.67;47.00;;;;;10.61;100.00;101972.59;5017424;28;45464;-82
2022/03/28 05:19:49;;;;;;;;;57.00;45.33;;;;;10.57;100.00;101967.50;5018322;28;45316;-81
2022/03/28 05:22:14;;;;;;;;;54.33;43.33;;;;;10.53;100.00;101970.31;5022086;28;45088;-81
2022/03/28 05:24:39;;;;;;;;;58.00;45.33;;;;;10.47;100.00;101975.91;5006340;28;45397;-81
2022/03/28 05:27:05;;;;;;;;;57.67;44.67;;;;;10.42;100.00;101975.25;5024098;28;45318;-82
2022/03/28 05:29:30;;;;;;;;;62.00;46.67;;;;;10.39;100.00;101977.19;5019440;28;44745;-83
2022/03/28 05:31:56;;;;;;;;;58.33;45.33;;;;;10.36;100.00;101972.03;5018555;28;45517;-81
2022/03/28 05:34:21;;;;;;;;;64.33;49.00;;;;;10.34;100.00;101979.19;5016712;28;45413;-82
2022/03/28 05:36:47;;;;;;;;;61.67;46.67;;;;;10.35;100.00;101975.59;5017683;28;44719;-82
2022/03/28 05:39:13;;;;;;;;;64.33;47.67;;;;;10.34;100.00;101981.84;5015561;28;44996;-83
2022/03/28 05:41:38;;;;;;;;;62.67;46.67;;;;;10.33;100.00;101974.81;5016099;28;45254;-83
2022/03/28 05:44:04;;;;;;;;;60.67;46.33;;;;;10.35;100.00;101978.25;5016357;28;45378;-82
2022/03/28 05:46:29;;;;;;;;;59.33;45.33;;;;;10.36;100.00;101983.53;5016456;28;45409;-82
2022/03/28 05:48:55;;;;;;;;;62.33;49.33;;;;;10.41;100.00;101985.97;4999409;28;44895;-84
2022/03/28 05:51:21;;;;;;;;;62.00;45.67;;;;;10.46;100.00;101981.31;5017357;28;45074;-85
2022/03/28 05:53:47;;;;;;;;;59.67;46.00;;;;;10.51;100.00;101977.50;5018183;28;45460;-84
2022/03/28 05:56:12;;;;;;;;;57.67;44.67;;;;;10.59;100.00;101973.59;5020728;28;44849;-84
2022/03/28 05:58:38;;;;;;;;;60.67;48.67;;;;;10.66;100.00;101967.94;5005495;28;45370;-84
2022/03/28 06:01:03;;;;;;;;;66.33;52.00;;;;;10.72;100.00;101970.28;5013077;28;46774;-83
2022/03/28 06:03:29;;;;;;;;;63.00;45.67;;;;;10.80;100.00;101969.94;5006162;28;44759;-85
2022/03/28 06:05:54;;;;;;;;;63.00;47.00;;;;;10.86;100.00;101964.31;5015183;28;45347;-85
2022/03/28 06:08:21;;;;;;;;;60.67;46.33;;;;;10.96;100.00;101972.72;5016679;28;44775;-84
2022/03/28 06:10:46;;;;;;;;;65.00;48.33;;;;;11.02;100.00;101977.72;4999132;28;45417;-86
2022/03/28 06:13:13;;;;;;;;;68.33;49.67;;;;;11.10;100.00;101970.25;4999429;28;44776;-84
2022/03/28 06:15:38;;;;;;;;;62.67;48.33;;;;;11.21;100.00;101972.34;5023240;28;45508;-85
2022/03/28 06:18:05;;;;;;;;;59.33;47.33;;;;;11.32;100.00;101973.56;5027595;28;44818;-85
2022/03/28 06:20:32;;;;;;;;;59.33;46.33;;;;;11.45;100.00;101965.81;5024854;28;45234;-85
2022/03/28 06:22:57;;;;;;;;;60.00;48.00;;;;;11.57;100.00;101961.66;5022919;28;45231;-84
2022/03/28 06:25:22;;;;;;;;;65.33;49.33;;;;;11.68;100.00;101966.44;5005384;28;44849;-85
2022/03/28 06:27:48;;;;;;;;;63.33;49.00;;;;;11.77;100.00;101965.97;5009617;28;44983;-84
2022/03/28 06:30:14;;;;;;;;;63.67;46.33;;;;;11.86;100.00;101964.66;5028947;28;45254;-85
2022/03/28 06:32:40;;;;;;;;;60.67;46.00;;;;;11.96;100.00;101960.56;5027896;28;45235;-85
2022/03/28 06:35:08;;;;;;;;;58.00;45.67;;;;;12.04;100.00;101961.88;5031749;28;45385;-83
2022/03/28 06:37:35;;;;;;;;;59.00;46.33;;;;;12.14;100.00;101962.25;5005172;28;45390;-85
2022/03/28 06:40:03;;;;;;;;;63.33;47.67;;;;;12.20;100.00;101969.03;5003984;28;46338;-84
2022/03/28 06:42:32;;;;;;;;;61.00;46.00;;;;;12.21;100.00;101958.28;5004925;28;45374;-85
2022/03/28 06:44:58;;;;;;;;;67.33;49.00;;;;;12.23;100.00;101967.09;5027150;28;44826;-85
2022/03/28 06:47:25;;;;;;;;;64.67;49.67;;;;;12.25;100.00;101957.19;5031349;28;44949;-84
2022/03/28 06:49:54;;;;;;;;;66.33;47.67;;;;;12.24;100.00;101957.28;5017514;28;45130;-86
2022/03/28 06:52:20;;;;;;;;;61.67;48.67;;;;;12.23;100.00;101953.75;5020751;28;45294;-85
2022/03/28 06:54:45;;;;;;;;;64.67;48.00;;;;;12.27;100.00;101959.75;5025301;28;45540;-85
2022/03/28 06:57:12;;;;;;;;;62.33;50.00;;;;;12.32;100.00;101952.38;5022050;28;44846;-85
2022/03/28 06:59:38;;;;;;;;;69.67;50.00;;;;;12.41;100.00;101964.34;5005278;28;45105;-85
2022/03/28 07:02:06;;;;;;;;;65.00;49.67;;;;;12.48;100.00;101955.94;5027422;28;45355;-86
2022/03/28 07:04:32;;;;;;;;;60.00;46.00;;;;;12.59;100.00;101953.53;5015970;28;45480;-86
2022/03/28 07:06:58;;;;;;;;;66.67;52.00;;;;;12.70;100.00;101954.72;5006603;28;45255;-83
2022/03/28 07:09:23;;;;;;;;;67.00;48.00;;;;;12.81;100.00;101954.97;5020572;28;45412;-85
2022/03/28 07:11:48;;;;;;;;;64.33;50.00;;;;;12.92;100.00;101949.91;5019931;28;44738;-84
2022/03/28 07:14:16;;;;;;;;;67.00;52.00;;;;;13.06;100.00;101949.97;5019918;28;45430;-85
2022/03/28 07:16:42;;;;;;;;;61.67;49.67;;;;;13.20;100.00;101942.94;5020154;28;44826;-85
2022/03/28 07:19:08;;;;;;;;;68.33;52.67;;;;;13.32;100.00;101940.47;5020244;28;45427;-85
2022/03/28 07:21:34;;;;;;;;;72.00;55.67;;;;;13.46;100.00;101938.78;5020006;28;45314;-85
2022/03/28 07:23:59;;;;;;;;;75.00;55.33;;;;;13.58;100.00;101946.91;5003251;28;44764;-85
2022/03/28 07:26:25;;;;;;;;;73.67;56.00;;;;;13.72;100.00;101940.72;5003521;28;44954;-84
2022/03/28 07:28:50;;;;;;;;;64.67;51.67;;;;;13.88;100.00;101943.34;5022365;28;45256;-86
2022/03/28 07:31:17;;;;;;;;;78.33;54.67;;;;;14.01;100.00;101938.06;5006670;28;44781;-85
2022/03/28 07:33:43;;;;;;;;;71.00;55.33;;;;;14.15;100.00;101938.94;5009543;28;45274;-85
2022/03/28 07:36:10;;;;;;;;;70.33;56.33;;;;;14.31;100.00;101938.84;5032323;28;44852;-86
2022/03/28 07:38:37;;;;;;;;;80.00;59.33;;;;;14.43;100.00;101939.88;5010063;28;45322;-86
2022/03/28 07:41:04;;;;;;;;;72.00;55.33;;;;;14.47;100.00;101930.69;5023962;28;44786;-85
2022/03/28 07:43:29;;;;;;;;;62.00;49.33;;;;;14.34;100.00;101933.28;5002088;28;45765;-84
2022/03/28 07:45:55;;;;;;;;;64.00;49.67;;;;;14.34;100.00;101932.44;5000763;28;44797;-85
2022/03/28 07:48:24;;;;;;;;;67.00;53.67;;;;;14.37;100.00;101927.75;4991335;28;46760;-84
2022/03/28 07:50:50;;;;;;;;;72.67;52.00;;;;;14.37;100.00;101932.25;5019839;28;44814;-83
2022/03/28 07:53:16;;;;;;;;;71.33;53.00;;;;;14.42;100.00;101929.28;5019579;28;45231;-84
2022/03/28 07:55:43;;;;;;;;;65.33;49.67;;;;;14.48;100.00;101931.59;5019238;28;45382;-85
2022/03/28 07:58:10;;;;;;;;;67.67;51.33;;;;;14.56;100.00;101927.47;5030368;28;45607;-85
2022/03/28 08:00:37;;;;;;;;;62.00;49.33;;;;;14.68;100.00;101931.16;5025747;28;44798;-86
2022/03/28 08:03:04;;;;;;;;;68.67;49.67;;;;;14.75;100.00;101928.94;5024053;28;45252;-82
2022/03/28 08:05:30;;;;;;;;;60.67;47.33;;;;;14.83;100.00;101921.25;5016510;28;44763;-83
2022/03/28 08:07:55;;;;;;;;;56.00;45.33;;;;;14.89;100.00;101927.09;5032326;28;45034;-84
2022/03/28 08:10:22;;;;;;;;;62.67;46.33;;;;;15.00;100.00;101920.16;5032183;28;44940;-82
2022/03/28 08:12:49;;;;;;;;;61.33;50.33;;;;;15.17;100.00;101925.22;5012752;28;44747;-84
2022/03/28 08:15:15;;;;;;;;;57.67;47.33;;;;;15.30;100.00;101928.78;5007803;28;44849;-86
2022/03/28 08:17:41;;;;;;;;;63.33;45.67;;;;;15.43;100.00;101921.66;5029251;28;45121;-85
2022/03/28 08:20:09;;;;;;;;;60.33;47.00;;;;;15.57;100.00;101923.38;5019472;28;45354;-84
2022/03/28 08:22:49;;;;;;;;;61.33;43.33;;;;;15.70;100.00;101925.22;5011810;28;44761;-84
2022/03/28 08:25:16;;;;;;;;;61.00;47.33;;;;;15.83;100.00;101928.78;5017004;28;45303;-85
2022/03/28 08:27:41;;;;;;;;;66.00;50.33;;;;;15.97;100.00;101933.19;5009458;28;45317;-84
2022/03/28 08:30:07;;;;;;;;;62.33;45.67;;;;;16.09;100.00;101926.94;4999111;28;45349;-84
2022/03/28 08:32:33;;;;;;;;;64.33;48.33;;;;;16.22;100.00;101916.19;5021938;28;45302;-85
2022/03/28 08:34:59;;;;;;;;;64.67;46.67;;;;;16.32;100.00;101910.06;5018040;28;44863;-84
2022/03/28 08:37:24;;;;;;;;;58.67;45.00;;;;;16.42;100.00;101918.28;5004887;28;45422;-84
2022/03/28 08:39:54;;;;;;;;;62.00;46.00;;;;;16.51;100.00;101909.56;5006625;28;44795;-83
2022/03/28 08:42:20;;;;;;;;;57.00;47.67;;;;;16.62;100.00;101906.94;5026305;28;44735;-85
2022/03/28 08:44:47;;;;;;;;;67.67;49.00;;;;;16.69;100.00;101902.00;5010392;28;44945;-83
2022/03/28 08:47:17;;;;;;;;;57.00;45.67;;;;;16.79;100.00;101900.38;4998058;28;45599;-86
2022/03/28 08:49:43;;;;;;;;;64.67;47.67;;;;;16.87;100.00;101903.31;4999160;28;44970;-85
2022/03/28 08:52:08;;;;;;;;;63.33;50.00;;;;;16.85;100.00;101897.22;4998197;28;45375;-85
2022/03/28 08:54:34;;;;;;;;;58.33;46.33;;;;;16.98;100.00;101904.38;4997361;28;45471;-85
2022/03/28 08:57:00;;;;;;;;;59.67;46.00;;;;;17.07;100.00;101904.53;4997565;28;45503;-86
2022/03/28 08:59:26;;;;;;;;;65.00;47.00;;;;;17.14;100.00;101899.53;4998092;28;45601;-86
2022/03/28 09:01:51;;;;;;;;;58.67;43.33;;;;;17.21;100.00;101903.47;4997866;28;44917;-85
2022/03/28 09:04:17;;;;;;;;;59.33;45.67;;;;;17.33;100.00;101893.63;4998050;28;44814;-85
2022/03/28 09:06:44;;;;;;;;;58.00;45.00;;;;;17.42;100.00;101896.47;5001564;28;45369;-85
2022/03/28 09:09:21;;;;;;;;;49.00;41.00;;;;;17.57;100.00;101894.41;4988658;28;45588;-86
2022/03/28 09:11:51;;;;;;;;;55.00;41.00;;;;;17.71;100.00;101902.25;5024159;28;44828;-85
2022/03/28 09:14:24;;;;;;;;;58.00;44.00;;;;;17.84;100.00;101903.97;5024620;28;45497;-85
2022/03/28 09:17:07;;;;;;;;;46.33;37.67;;;;;17.89;100.00;101893.72;5010778;28;45350;-85
2022/03/28 09:19:49;;;;;;;;;61.33;46.00;;;;;17.95;100.00;101894.09;5003519;28;45206;-85
2022/03/28 09:22:19;;;;;;;;;51.67;37.33;;;;;17.96;100.00;101898.50;5001014;28;44878;-85
2022/03/28 09:24:45;;;;;;;;;52.00;41.00;;;;;18.00;100.00;101888.38;4999765;28;44819;-84
2022/03/28 09:27:20;;;;;;;;;58.00;42.33;;;;;18.11;100.00;101887.50;4999320;28;45027;-85
2022/03/28 09:29:58;;;;;;;;;54.00;40.67;;;;;18.28;100.00;101888.84;4995956;28;44852;-88
2022/03/28 09:32:27;;;;;;;;;49.00;40.67;;;;;18.40;100.00;101893.22;5007954;28;44855;-89
2022/03/28 09:35:03;;;;;;;;;49.33;35.67;;;;;18.48;100.00;101885.38;5022094;28;45345;-88
2022/03/28 09:37:29;;;;;;;;;52.33;43.00;;;;;18.58;100.00;101886.31;5007094;28;45283;-87
2022/03/28 09:39:55;;;;;;;;;58.67;46.33;;;;;18.71;100.00;101881.66;5004737;28;45494;-85
2022/03/28 09:42:20;;;;;;;;;53.00;43.00;;;;;18.79;100.00;101883.72;4987602;28;44722;-87
2022/03/28 09:44:53;;;;;;;;;49.67;39.67;;;;;18.93;100.00;101886.09;5005954;28;44831;-87
2022/03/28 09:47:23;;;;;;;;;50.00;42.67;;;;;19.04;100.00;101871.72;5002627;28;45081;-86
2022/03/28 09:49:54;;;;;;;;;52.33;40.33;;;;;19.18;100.00;101868.72;5003015;28;44822;-86
2022/03/28 09:52:22;;;;;;;;;54.00;41.33;;;;;19.30;98.58;101865.97;5011882;28;45485;-86
2022/03/28 09:54:59;;;;;;;;;50.33;37.33;;;;;19.43;97.54;101869.31;5006459;28;44899;-85
2022/03/28 09:57:27;;;;;;;;;52.33;41.67;;;;;19.34;96.66;101867.41;5011868;28;45292;-85
2022/03/28 10:00:07;;;;;;;;;58.33;43.00;;;;;19.47;96.36;101866.22;5001773;28;45421;-85
2022/03/28 10:02:35;;;;;;;;;53.67;40.67;;;;;19.62;93.24;101865.91;5005283;28;45427;-86
2022/03/28 10:05:01;;;;;;;;;51.67;40.33;;;;;19.61;93.03;101865.03;5009075;28;45167;-86
2022/03/28 10:07:26;;;;;;;;;49.00;39.00;;;;;19.72;92.92;101862.25;4997838;28;46918;-86
2022/03/28 10:09:53;;;;;;;;;47.67;40.67;;;;;19.90;92.53;101859.78;5014435;28;44840;-87
2022/03/28 10:12:20;;;;;;;;;51.67;40.00;;;;;20.06;91.66;101853.03;5001654;28;45413;-88
2022/03/28 10:14:57;;;;;;;;;50.33;39.67;;;;;20.14;91.21;101847.81;5013543;28;44751;-86
2022/03/28 10:17:24;;;;;;;;;42.00;32.67;;;;;20.24;89.37;101848.69;5010361;28;45295;-86
2022/03/28 10:19:51;;;;;;;;;49.33;36.67;;;;;20.40;89.78;101842.75;5023960;28;44810;-86
2022/03/28 10:22:26;;;;;;;;;51.50;41.00;;;;;20.59;87.01;101837.38;5022740;28;45490;-85
2022/03/28 10:24:55;;;;;;;;;45.00;33.00;;;;;20.67;86.30;101836.69;4995845;28;44939;-86
2022/03/28 10:27:22;;;;;;;;;46.00;36.75;;;;;20.83;86.68;101844.22;5000324;28;46699;-87
2022/03/28 10:29:47;;;;;;;;;47.75;34.75;;;;;20.90;81.96;101839.97;5016042;28;44633;-86
2022/03/28 10:32:20;;;;;;;;;48.00;36.33;;;;;20.94;82.26;101827.88;5006613;28;44695;-86
2022/03/28 10:34:56;;;;;;;;;52.67;39.00;;;;;21.02;81.42;101828.00;5016292;28;45394;-87
2022/03/28 10:37:34;;;;;;;;;46.75;37.50;;;;;21.22;81.16;101831.53;5017729;28;45270;-86
2022/03/28 10:40:24;;;;;;;;;50.25;35.50;;;;;21.36;82.07;101822.13;5024407;28;45333;-85
2022/03/28 10:43:03;;;;;;;;;45.25;35.25;;;;;21.36;79.16;101816.72;4994171;28;44873;-86
2022/03/28 10:45:50;;;;;;;;;50.50;38.25;;;;;21.42;76.91;101810.72;5009556;28;44799;-87
2022/03/28 10:48:17;;;;;;;;;30.50;29.00;;;;;21.45;72.03;101811.28;5009108;28;45551;-86
2022/03/28 10:50:51;;;;;;;;;37.75;32.75;;;;;21.33;70.49;101809.78;5015436;28;44849;-87
2022/03/28 10:53:17;;;;;;;;;34.50;28.75;;;;;21.46;69.38;101801.34;5011481;28;44842;-86
2022/03/28 10:55:57;;;;;;;;;35.00;24.75;;;;;21.61;67.66;101802.56;5019696;28;44806;-85
2022/03/28 10:58:31;;;;;;;;;38.50;27.75;;;;;21.74;66.37;101802.22;5003147;28;45359;-86
2022/03/28 11:01:09;;;;;;;;;28.00;25.00;;;;;21.74;61.60;101797.66;5010468;28;44630;-86
2022/03/28 11:03:55;;;;;;;;;36.50;32.00;;;;;21.81;61.08;101797.94;4984680;28;45243;-84